sensor_id;sensor_type;location;lat;lon;timestamp;P1;durP1;ratioP1;P2;durP2;ratioP2
49800;SDS011;35698;50.232;30.540;2022-10-17T14:06:44;16.77;;;8.69;;
49800;SDS011;35698;50.232;30.540;2022-10-17T14:07:58;11.33;;;6.09;;
49800;SDS011;35698;50.232;30.540;2022-10-17T14:09:24;13.84;;;5.69;;
49800;SDS011;35698;50.232;30.540;2022-10-17T14:10:35;11.34;;;5.66;;
49800;SDS011;35698;50.232;30.540;2022-10-17T14:12:05;10.65;;;6.98;;
49800;SDS011;35698;50.232;30.540;2022-10-17T14:13:29;12.22;;;5.42;;
49800;SDS011;35698;50.232;30.540;2022-10-17T14:15:01;16.22;;;6.00;;
49800;SDS011;35698;50.232;30.540;2022-10-17T14:20:24;11.27;;;4.63;;
49800;SDS011;35698;50.232;30.540;2022-10-17T14:21:47;7.51;;;5.14;;
49800;SDS011;35698;50.232;30.540;2022-10-17T14:23:33;9.76;;;4.04;;
49800;SDS011;35698;50.232;30.540;2022-10-17T14:53:26;10.58;;;6.44;;
49800;SDS011;35698;50.232;30.540;2022-10-17T15:06:53;27.50;;;14.19;;
49800;SDS011;35698;50.232;30.540;2022-10-17T15:08:55;30.35;;;16.71;;
49800;SDS011;35698;50.232;30.540;2022-10-17T15:09:53;41.68;;;20.18;;
49800;SDS011;35698;50.232;30.540;2022-10-17T15:11:34;40.21;;;20.18;;
49800;SDS011;35698;50.232;30.540;2022-10-17T15:12:53;41.78;;;19.77;;
49800;SDS011;35698;50.232;30.540;2022-10-17T15:24:54;27.76;;;13.51;;
49800;SDS011;35698;50.232;30.540;2022-10-17T15:25:59;28.01;;;14.20;;
49800;SDS011;35698;50.232;30.540;2022-10-17T15:27:18;25.64;;;15.16;;
49800;SDS011;35698;50.232;30.540;2022-10-17T15:28:24;21.34;;;11.59;;
49800;SDS011;35698;50.232;30.540;2022-10-17T15:29:35;32.44;;;14.16;;
49800;SDS011;35698;50.232;30.540;2022-10-17T15:30:39;21.53;;;12.17;;
49800;SDS011;35698;50.232;30.540;2022-10-17T15:31:51;24.09;;;13.92;;
49800;SDS011;35698;50.232;30.540;2022-10-17T15:32:54;26.04;;;15.69;;
49800;SDS011;35698;50.232;30.540;2022-10-17T15:33:58;27.28;;;14.51;;
49800;SDS011;35698;50.232;30.540;2022-10-17T15:35:09;22.56;;;15.97;;
49800;SDS011;35698;50.232;30.540;2022-10-17T15:36:23;23.89;;;15.15;;
49800;SDS011;35698;50.232;30.540;2022-10-17T15:37:39;29.19;;;14.92;;
49800;SDS011;35698;50.232;30.540;2022-10-17T15:38:43;26.72;;;15.70;;
49800;SDS011;35698;50.232;30.540;2022-10-17T15:39:55;28.93;;;14.55;;
49800;SDS011;35698;50.232;30.540;2022-10-17T15:40:59;27.25;;;16.34;;
49800;SDS011;35698;50.232;30.540;2022-10-17T15:42:11;23.03;;;15.49;;
49800;SDS011;35698;50.232;30.540;2022-10-17T15:43:14;27.39;;;15.98;;
49800;SDS011;35698;50.232;30.540;2022-10-17T15:44:20;28.17;;;17.47;;
49800;SDS011;35698;50.232;30.540;2022-10-17T15:45:32;29.60;;;16.52;;
49800;SDS011;35698;50.232;30.540;2022-10-17T15:46:36;28.89;;;16.11;;
49800;SDS011;35698;50.232;30.540;2022-10-17T15:47:43;25.34;;;14.46;;
49800;SDS011;35698;50.232;30.540;2022-10-17T15:49:02;24.99;;;14.38;;
49800;SDS011;35698;50.232;30.540;2022-10-17T15:50:12;23.90;;;12.49;;
49800;SDS011;35698;50.232;30.540;2022-10-17T15:51:25;26.80;;;12.76;;
49800;SDS011;35698;50.232;30.540;2022-10-17T15:52:43;23.81;;;14.12;;
49800;SDS011;35698;50.232;30.540;2022-10-17T15:53:46;34.21;;;17.00;;
49800;SDS011;35698;50.232;30.540;2022-10-17T15:54:50;36.82;;;17.69;;
49800;SDS011;35698;50.232;30.540;2022-10-17T15:56:02;51.64;;;21.55;;
49800;SDS011;35698;50.232;30.540;2022-10-17T15:57:07;48.69;;;19.62;;
49800;SDS011;35698;50.232;30.540;2022-10-17T15:58:22;47.65;;;22.13;;
49800;SDS011;35698;50.232;30.540;2022-10-17T15:59:27;51.37;;;24.89;;
49800;SDS011;35698;50.232;30.540;2022-10-17T16:00:41;49.89;;;24.08;;
49800;SDS011;35698;50.232;30.540;2022-10-17T16:01:45;57.91;;;24.99;;
49800;SDS011;35698;50.232;30.540;2022-10-17T16:02:57;66.23;;;30.89;;
49800;SDS011;35698;50.232;30.540;2022-10-17T16:04:01;59.16;;;26.54;;
49800;SDS011;35698;50.232;30.540;2022-10-17T16:05:16;61.55;;;27.98;;
49800;SDS011;35698;50.232;30.540;2022-10-17T16:06:33;55.31;;;24.30;;
49800;SDS011;35698;50.232;30.540;2022-10-17T16:07:37;55.06;;;24.88;;
49800;SDS011;35698;50.232;30.540;2022-10-17T16:08:48;49.57;;;23.30;;
49800;SDS011;35698;50.232;30.540;2022-10-17T16:09:52;59.47;;;23.89;;
49800;SDS011;35698;50.232;30.540;2022-10-17T16:11:03;53.73;;;24.21;;
49800;SDS011;35698;50.232;30.540;2022-10-17T16:13:25;66.31;;;28.15;;
49800;SDS011;35698;50.232;30.540;2022-10-17T16:14:29;60.64;;;26.24;;
49800;SDS011;35698;50.232;30.540;2022-10-17T16:15:33;61.45;;;28.43;;
49800;SDS011;35698;50.232;30.540;2022-10-17T16:16:44;55.34;;;25.11;;
49800;SDS011;35698;50.232;30.540;2022-10-17T16:17:48;46.20;;;23.45;;
49800;SDS011;35698;50.232;30.540;2022-10-17T16:19:00;45.94;;;20.49;;
49800;SDS011;35698;50.232;30.540;2022-10-17T16:20:05;36.36;;;15.94;;
49800;SDS011;35698;50.232;30.540;2022-10-17T16:21:11;54.89;;;26.48;;
49800;SDS011;35698;50.232;30.540;2022-10-17T16:22:25;48.69;;;22.20;;
49800;SDS011;35698;50.232;30.540;2022-10-17T16:23:31;45.74;;;21.16;;
49800;SDS011;35698;50.232;30.540;2022-10-17T16:24:42;37.00;;;18.03;;
49800;SDS011;35698;50.232;30.540;2022-10-17T16:25:45;43.10;;;20.27;;
49800;SDS011;35698;50.232;30.540;2022-10-17T16:26:49;42.53;;;19.66;;
49800;SDS011;35698;50.232;30.540;2022-10-17T16:27:54;43.35;;;20.02;;
49800;SDS011;35698;50.232;30.540;2022-10-17T16:29:07;37.79;;;20.06;;
49800;SDS011;35698;50.232;30.540;2022-10-17T16:30:10;39.91;;;19.37;;
49800;SDS011;35698;50.232;30.540;2022-10-17T16:31:21;34.81;;;17.42;;
49800;SDS011;35698;50.232;30.540;2022-10-17T16:32:34;39.33;;;18.02;;
49800;SDS011;35698;50.232;30.540;2022-10-17T16:33:38;39.02;;;20.41;;
49800;SDS011;35698;50.232;30.540;2022-10-17T16:34:41;36.08;;;17.49;;
49800;SDS011;35698;50.232;30.540;2022-10-17T16:35:53;35.68;;;17.99;;
49800;SDS011;35698;50.232;30.540;2022-10-17T16:36:57;38.33;;;18.91;;
49800;SDS011;35698;50.232;30.540;2022-10-17T16:38:08;38.88;;;18.73;;
49800;SDS011;35698;50.232;30.540;2022-10-17T16:39:12;32.69;;;15.40;;
49800;SDS011;35698;50.232;30.540;2022-10-17T16:40:15;33.25;;;16.71;;
49800;SDS011;35698;50.232;30.540;2022-10-17T16:41:22;34.14;;;17.25;;
49800;SDS011;35698;50.232;30.540;2022-10-17T16:42:28;33.47;;;15.58;;
49800;SDS011;35698;50.232;30.540;2022-10-17T16:43:39;35.86;;;18.45;;
49800;SDS011;35698;50.232;30.540;2022-10-17T16:44:42;32.09;;;16.35;;
49800;SDS011;35698;50.232;30.540;2022-10-17T16:45:46;30.67;;;14.49;;
49800;SDS011;35698;50.232;30.540;2022-10-17T16:46:50;26.53;;;14.29;;
49800;SDS011;35698;50.232;30.540;2022-10-17T16:47:53;29.93;;;14.58;;
49800;SDS011;35698;50.232;30.540;2022-10-17T16:48:57;25.13;;;12.46;;
49800;SDS011;35698;50.232;30.540;2022-10-17T16:50:01;25.18;;;12.63;;
49800;SDS011;35698;50.232;30.540;2022-10-17T16:51:05;27.44;;;12.86;;
49800;SDS011;35698;50.232;30.540;2022-10-17T16:52:08;24.69;;;11.94;;
49800;SDS011;35698;50.232;30.540;2022-10-17T16:53:20;24.97;;;12.85;;
49800;SDS011;35698;50.232;30.540;2022-10-17T16:54:23;20.59;;;11.44;;
49800;SDS011;35698;50.232;30.540;2022-10-17T16:55:27;22.07;;;12.76;;
49800;SDS011;35698;50.232;30.540;2022-10-17T16:56:31;20.89;;;11.28;;
49800;SDS011;35698;50.232;30.540;2022-10-17T16:57:46;24.96;;;11.86;;
49800;SDS011;35698;50.232;30.540;2022-10-17T16:58:50;21.14;;;10.61;;
49800;SDS011;35698;50.232;30.540;2022-10-17T16:59:55;23.55;;;10.98;;
49800;SDS011;35698;50.232;30.540;2022-10-17T17:00:59;16.50;;;10.29;;
49800;SDS011;35698;50.232;30.540;2022-10-17T17:02:12;21.15;;;10.72;;
49800;SDS011;35698;50.232;30.540;2022-10-17T17:03:18;19.23;;;10.10;;
49800;SDS011;35698;50.232;30.540;2022-10-17T17:04:21;21.23;;;10.06;;
49800;SDS011;35698;50.232;30.540;2022-10-17T17:05:26;22.71;;;10.25;;
49800;SDS011;35698;50.232;30.540;2022-10-17T17:06:29;20.84;;;9.95;;
49800;SDS011;35698;50.232;30.540;2022-10-17T17:07:41;17.35;;;9.73;;
49800;SDS011;35698;50.232;30.540;2022-10-17T17:08:44;23.32;;;11.61;;
49800;SDS011;35698;50.232;30.540;2022-10-17T17:09:48;21.56;;;10.71;;
49800;SDS011;35698;50.232;30.540;2022-10-17T17:10:52;30.75;;;17.12;;
49800;SDS011;35698;50.232;30.540;2022-10-17T17:11:56;19.86;;;10.11;;
49800;SDS011;35698;50.232;30.540;2022-10-17T17:13:07;26.96;;;15.54;;
49800;SDS011;35698;50.232;30.540;2022-10-17T17:14:11;22.36;;;11.64;;
49800;SDS011;35698;50.232;30.540;2022-10-17T17:15:14;23.09;;;13.08;;
49800;SDS011;35698;50.232;30.540;2022-10-17T17:16:20;19.64;;;11.93;;
49800;SDS011;35698;50.232;30.540;2022-10-17T17:18:57;24.92;;;14.29;;
49800;SDS011;35698;50.232;30.540;2022-10-17T17:20:08;22.73;;;12.89;;
49800;SDS011;35698;50.232;30.540;2022-10-17T17:21:12;29.59;;;16.07;;
49800;SDS011;35698;50.232;30.540;2022-10-17T17:22:29;28.55;;;16.73;;
49800;SDS011;35698;50.232;30.540;2022-10-17T17:23:35;24.33;;;15.18;;
49800;SDS011;35698;50.232;30.540;2022-10-17T17:26:38;22.24;;;13.86;;
49800;SDS011;35698;50.232;30.540;2022-10-17T17:28:11;24.96;;;14.18;;
49800;SDS011;35698;50.232;30.540;2022-10-17T17:29:17;25.82;;;14.26;;
49800;SDS011;35698;50.232;30.540;2022-10-17T17:30:37;29.71;;;15.13;;
49800;SDS011;35698;50.232;30.540;2022-10-17T17:31:43;24.93;;;13.41;;
49800;SDS011;35698;50.232;30.540;2022-10-17T17:33:10;28.33;;;13.55;;
49800;SDS011;35698;50.232;30.540;2022-10-17T17:34:39;25.46;;;13.42;;
49800;SDS011;35698;50.232;30.540;2022-10-17T17:36:29;28.57;;;15.44;;
49800;SDS011;35698;50.232;30.540;2022-10-17T17:37:36;26.24;;;13.66;;
49800;SDS011;35698;50.232;30.540;2022-10-17T17:38:47;30.23;;;15.21;;
49800;SDS011;35698;50.232;30.540;2022-10-17T17:40:14;25.39;;;14.77;;
49800;SDS011;35698;50.232;30.540;2022-10-17T17:41:25;31.83;;;14.90;;
49800;SDS011;35698;50.232;30.540;2022-10-17T17:42:36;26.03;;;13.56;;
49800;SDS011;35698;50.232;30.540;2022-10-17T17:45:26;28.26;;;14.11;;
49800;SDS011;35698;50.232;30.540;2022-10-17T17:46:34;29.46;;;14.87;;
49800;SDS011;35698;50.232;30.540;2022-10-17T17:47:47;26.97;;;14.06;;
49800;SDS011;35698;50.232;30.540;2022-10-17T17:49:43;29.15;;;13.73;;
49800;SDS011;35698;50.232;30.540;2022-10-17T17:50:54;26.94;;;14.46;;
49800;SDS011;35698;50.232;30.540;2022-10-17T17:52:21;25.87;;;14.27;;
49800;SDS011;35698;50.232;30.540;2022-10-17T17:53:32;27.36;;;13.39;;
49800;SDS011;35698;50.232;30.540;2022-10-17T17:54:38;23.91;;;13.61;;
49800;SDS011;35698;50.232;30.540;2022-10-17T17:56:05;29.17;;;13.82;;
49800;SDS011;35698;50.232;30.540;2022-10-17T17:57:12;34.72;;;14.82;;
49800;SDS011;35698;50.232;30.540;2022-10-17T17:58:31;25.97;;;13.77;;
49800;SDS011;35698;50.232;30.540;2022-10-17T18:01:26;26.21;;;13.78;;
49800;SDS011;35698;50.232;30.540;2022-10-17T18:02:36;24.33;;;14.08;;
49800;SDS011;35698;50.232;30.540;2022-10-17T18:04:20;29.53;;;14.64;;
49800;SDS011;35698;50.232;30.540;2022-10-17T18:05:41;26.21;;;15.12;;
49800;SDS011;35698;50.232;30.540;2022-10-17T18:06:58;26.11;;;14.84;;
49800;SDS011;35698;50.232;30.540;2022-10-17T18:08:04;33.12;;;16.06;;
49800;SDS011;35698;50.232;30.540;2022-10-17T18:09:20;31.73;;;15.73;;
49800;SDS011;35698;50.232;30.540;2022-10-17T18:10:47;29.36;;;15.67;;
49800;SDS011;35698;50.232;30.540;2022-10-17T18:13:05;33.42;;;14.63;;
49800;SDS011;35698;50.232;30.540;2022-10-17T18:14:39;28.68;;;15.38;;
49800;SDS011;35698;50.232;30.540;2022-10-17T18:16:06;23.61;;;14.57;;
49800;SDS011;35698;50.232;30.540;2022-10-17T18:17:53;33.60;;;15.41;;
49800;SDS011;35698;50.232;30.540;2022-10-17T18:19:00;25.94;;;14.63;;
49800;SDS011;35698;50.232;30.540;2022-10-17T18:21:59;30.44;;;15.96;;
49800;SDS011;35698;50.232;30.540;2022-10-17T18:23:05;31.36;;;16.12;;
49800;SDS011;35698;50.232;30.540;2022-10-17T18:24:21;30.56;;;15.70;;
49800;SDS011;35698;50.232;30.540;2022-10-17T18:25:25;30.08;;;15.40;;
49800;SDS011;35698;50.232;30.540;2022-10-17T18:26:30;28.91;;;14.96;;
49800;SDS011;35698;50.232;30.540;2022-10-17T18:27:36;34.25;;;16.63;;
49800;SDS011;35698;50.232;30.540;2022-10-17T18:28:42;26.79;;;14.02;;
49800;SDS011;35698;50.232;30.540;2022-10-17T18:30:25;33.14;;;16.09;;
49800;SDS011;35698;50.232;30.540;2022-10-17T18:33:22;29.96;;;15.67;;
49800;SDS011;35698;50.232;30.540;2022-10-17T18:34:28;34.00;;;15.88;;
49800;SDS011;35698;50.232;30.540;2022-10-17T18:36:02;29.74;;;15.17;;
49800;SDS011;35698;50.232;30.540;2022-10-17T18:37:24;30.39;;;16.42;;
49800;SDS011;35698;50.232;30.540;2022-10-17T18:40:03;30.66;;;15.17;;
49800;SDS011;35698;50.232;30.540;2022-10-17T18:41:18;31.38;;;15.38;;
49800;SDS011;35698;50.232;30.540;2022-10-17T18:42:41;34.24;;;15.71;;
49800;SDS011;35698;50.232;30.540;2022-10-17T18:45:09;34.59;;;16.09;;
49800;SDS011;35698;50.232;30.540;2022-10-17T18:46:18;30.64;;;16.03;;
49800;SDS011;35698;50.232;30.540;2022-10-17T18:47:33;26.34;;;15.03;;
49800;SDS011;35698;50.232;30.540;2022-10-17T18:48:57;28.70;;;15.85;;
49800;SDS011;35698;50.232;30.540;2022-10-17T18:53:08;27.67;;;15.42;;
49800;SDS011;35698;50.232;30.540;2022-10-17T18:54:22;29.89;;;15.13;;
49800;SDS011;35698;50.232;30.540;2022-10-17T18:55:29;24.39;;;15.12;;
49800;SDS011;35698;50.232;30.540;2022-10-17T18:56:59;28.58;;;15.74;;
49800;SDS011;35698;50.232;30.540;2022-10-17T18:58:15;32.53;;;15.75;;
49800;SDS011;35698;50.232;30.540;2022-10-17T18:59:34;29.62;;;14.79;;
49800;SDS011;35698;50.232;30.540;2022-10-17T19:01:14;27.42;;;15.64;;
49800;SDS011;35698;50.232;30.540;2022-10-17T19:04:16;28.00;;;14.17;;
49800;SDS011;35698;50.232;30.540;2022-10-17T19:05:24;30.53;;;14.93;;
49800;SDS011;35698;50.232;30.540;2022-10-17T19:07:14;29.32;;;16.08;;
49800;SDS011;35698;50.232;30.540;2022-10-17T19:08:28;27.55;;;15.54;;
49800;SDS011;35698;50.232;30.540;2022-10-17T19:15:19;27.08;;;13.66;;
49800;SDS011;35698;50.232;30.540;2022-10-17T19:16:47;30.36;;;14.79;;
49800;SDS011;35698;50.232;30.540;2022-10-17T19:18:05;30.43;;;16.11;;
49800;SDS011;35698;50.232;30.540;2022-10-17T19:19:20;26.73;;;14.87;;
49800;SDS011;35698;50.232;30.540;2022-10-17T19:20:49;27.61;;;13.58;;
49800;SDS011;35698;50.232;30.540;2022-10-17T19:22:25;36.24;;;17.21;;
49800;SDS011;35698;50.232;30.540;2022-10-17T19:23:38;29.72;;;14.68;;
49800;SDS011;35698;50.232;30.540;2022-10-17T19:24:46;24.89;;;14.26;;
49800;SDS011;35698;50.232;30.540;2022-10-17T19:26:11;32.41;;;15.71;;
49800;SDS011;35698;50.232;30.540;2022-10-17T19:27:42;27.58;;;14.79;;
49800;SDS011;35698;50.232;30.540;2022-10-17T19:29:40;33.11;;;14.87;;
49800;SDS011;35698;50.232;30.540;2022-10-17T19:31:14;29.12;;;14.98;;
49800;SDS011;35698;50.232;30.540;2022-10-17T19:33:04;25.98;;;14.27;;
49800;SDS011;35698;50.232;30.540;2022-10-17T19:36:28;27.57;;;15.31;;
49800;SDS011;35698;50.232;30.540;2022-10-17T19:38:02;28.57;;;15.08;;
49800;SDS011;35698;50.232;30.540;2022-10-17T19:39:12;30.20;;;15.29;;
49800;SDS011;35698;50.232;30.540;2022-10-17T19:40:22;25.08;;;14.47;;
49800;SDS011;35698;50.232;30.540;2022-10-17T19:43:35;30.18;;;13.84;;
49800;SDS011;35698;50.232;30.540;2022-10-17T19:44:57;29.10;;;14.67;;
49800;SDS011;35698;50.232;30.540;2022-10-17T19:46:17;31.26;;;15.11;;
49800;SDS011;35698;50.232;30.540;2022-10-17T19:48:05;30.39;;;14.88;;
49800;SDS011;35698;50.232;30.540;2022-10-17T19:49:17;25.15;;;13.95;;
49800;SDS011;35698;50.232;30.540;2022-10-17T19:50:23;23.09;;;13.91;;
49800;SDS011;35698;50.232;30.540;2022-10-17T19:52:03;28.87;;;14.47;;
49800;SDS011;35698;50.232;30.540;2022-10-17T19:53:31;32.32;;;15.48;;
49800;SDS011;35698;50.232;30.540;2022-10-17T19:56:07;32.13;;;15.07;;
49800;SDS011;35698;50.232;30.540;2022-10-17T19:57:27;25.56;;;14.37;;
49800;SDS011;35698;50.232;30.540;2022-10-17T19:58:47;28.56;;;13.62;;
49800;SDS011;35698;50.232;30.540;2022-10-17T19:59:53;26.56;;;14.24;;
49800;SDS011;35698;50.232;30.540;2022-10-17T20:01:40;24.58;;;13.78;;
49800;SDS011;35698;50.232;30.540;2022-10-17T20:03:27;29.24;;;12.79;;
49800;SDS011;35698;50.232;30.540;2022-10-17T20:05:10;25.24;;;13.67;;
49800;SDS011;35698;50.232;30.540;2022-10-17T20:06:37;26.94;;;14.00;;
49800;SDS011;35698;50.232;30.540;2022-10-17T20:08:24;25.99;;;13.96;;
49800;SDS011;35698;50.232;30.540;2022-10-17T20:09:56;24.41;;;13.76;;
49800;SDS011;35698;50.232;30.540;2022-10-17T20:13:49;25.19;;;13.43;;
49800;SDS011;35698;50.232;30.540;2022-10-17T20:14:57;25.92;;;13.74;;
49800;SDS011;35698;50.232;30.540;2022-10-17T20:16:40;22.27;;;13.30;;
49800;SDS011;35698;50.232;30.540;2022-10-17T20:17:53;24.51;;;12.61;;
49800;SDS011;35698;50.232;30.540;2022-10-17T20:19:03;24.05;;;13.71;;
49800;SDS011;35698;50.232;30.540;2022-10-17T20:20:47;35.13;;;12.68;;
49800;SDS011;35698;50.232;30.540;2022-10-17T20:22:11;23.33;;;12.79;;
49800;SDS011;35698;50.232;30.540;2022-10-17T20:23:53;24.75;;;14.01;;
49800;SDS011;35698;50.232;30.540;2022-10-17T20:24:57;23.51;;;13.68;;
49800;SDS011;35698;50.232;30.540;2022-10-17T20:27:03;27.23;;;13.04;;
49800;SDS011;35698;50.232;30.540;2022-10-17T20:28:32;27.12;;;13.49;;
49800;SDS011;35698;50.232;30.540;2022-10-17T20:29:45;23.74;;;12.49;;
49800;SDS011;35698;50.232;30.540;2022-10-17T20:31:34;21.54;;;12.35;;
49800;SDS011;35698;50.232;30.540;2022-10-17T20:32:43;21.11;;;11.62;;
49800;SDS011;35698;50.232;30.540;2022-10-17T20:34:14;25.67;;;11.92;;
49800;SDS011;35698;50.232;30.540;2022-10-17T20:35:21;26.88;;;12.16;;
49800;SDS011;35698;50.232;30.540;2022-10-17T20:36:40;24.31;;;12.78;;
49800;SDS011;35698;50.232;30.540;2022-10-17T20:38:03;28.75;;;12.77;;
49800;SDS011;35698;50.232;30.540;2022-10-17T20:39:10;22.56;;;11.89;;
49800;SDS011;35698;50.232;30.540;2022-10-17T20:41:05;19.06;;;11.82;;
49800;SDS011;35698;50.232;30.540;2022-10-17T20:42:11;21.56;;;12.34;;
49800;SDS011;35698;50.232;30.540;2022-10-17T20:43:15;21.69;;;11.00;;
49800;SDS011;35698;50.232;30.540;2022-10-17T20:44:31;20.44;;;11.44;;
49800;SDS011;35698;50.232;30.540;2022-10-17T20:45:36;22.68;;;12.48;;
49800;SDS011;35698;50.232;30.540;2022-10-17T20:46:52;23.81;;;11.81;;
49800;SDS011;35698;50.232;30.540;2022-10-17T20:48:31;21.15;;;12.34;;
49800;SDS011;35698;50.232;30.540;2022-10-17T20:49:47;20.25;;;11.22;;
49800;SDS011;35698;50.232;30.540;2022-10-17T20:51:05;20.48;;;11.26;;
49800;SDS011;35698;50.232;30.540;2022-10-17T20:52:13;22.60;;;11.91;;
49800;SDS011;35698;50.232;30.540;2022-10-17T20:53:28;20.01;;;11.45;;
49800;SDS011;35698;50.232;30.540;2022-10-17T20:55:59;21.22;;;12.36;;
49800;SDS011;35698;50.232;30.540;2022-10-17T20:57:24;21.13;;;11.23;;
49800;SDS011;35698;50.232;30.540;2022-10-17T20:58:28;21.86;;;11.96;;
49800;SDS011;35698;50.232;30.540;2022-10-17T20:59:49;22.76;;;11.94;;
49800;SDS011;35698;50.232;30.540;2022-10-17T21:04:02;22.24;;;10.73;;
49800;SDS011;35698;50.232;30.540;2022-10-17T21:05:10;24.48;;;11.75;;
49800;SDS011;35698;50.232;30.540;2022-10-17T21:06:14;22.26;;;11.51;;
49800;SDS011;35698;50.232;30.540;2022-10-17T21:07:31;18.36;;;10.22;;
49800;SDS011;35698;50.232;30.540;2022-10-17T21:08:35;19.87;;;11.26;;
49800;SDS011;35698;50.232;30.540;2022-10-17T21:09:39;20.86;;;11.23;;
49800;SDS011;35698;50.232;30.540;2022-10-17T21:10:43;22.65;;;12.18;;
49800;SDS011;35698;50.232;30.540;2022-10-17T21:11:46;22.41;;;11.44;;
49800;SDS011;35698;50.232;30.540;2022-10-17T21:12:56;22.61;;;12.32;;
49800;SDS011;35698;50.232;30.540;2022-10-17T21:14:04;19.00;;;11.32;;
49800;SDS011;35698;50.232;30.540;2022-10-17T21:15:19;19.63;;;10.66;;
49800;SDS011;35698;50.232;30.540;2022-10-17T21:16:23;16.78;;;10.47;;
49800;SDS011;35698;50.232;30.540;2022-10-17T21:20:10;23.93;;;11.71;;
49800;SDS011;35698;50.232;30.540;2022-10-17T21:21:28;22.22;;;11.67;;
49800;SDS011;35698;50.232;30.540;2022-10-17T21:22:34;20.01;;;10.89;;
49800;SDS011;35698;50.232;30.540;2022-10-17T21:23:45;19.28;;;11.21;;
49800;SDS011;35698;50.232;30.540;2022-10-17T21:24:50;21.21;;;11.09;;
49800;SDS011;35698;50.232;30.540;2022-10-17T21:26:01;20.35;;;11.01;;
49800;SDS011;35698;50.232;30.540;2022-10-17T21:27:40;17.66;;;11.14;;
49800;SDS011;35698;50.232;30.540;2022-10-17T21:28:44;18.66;;;10.91;;
49800;SDS011;35698;50.232;30.540;2022-10-17T21:29:48;20.21;;;10.89;;
49800;SDS011;35698;50.232;30.540;2022-10-17T21:32:34;28.83;;;11.78;;
49800;SDS011;35698;50.232;30.540;2022-10-17T21:33:40;21.02;;;10.34;;
49800;SDS011;35698;50.232;30.540;2022-10-17T21:34:45;16.17;;;9.96;;
49800;SDS011;35698;50.232;30.540;2022-10-17T21:35:52;22.67;;;11.16;;
49800;SDS011;35698;50.232;30.540;2022-10-17T21:37:06;19.66;;;11.43;;
49800;SDS011;35698;50.232;30.540;2022-10-17T21:38:10;16.16;;;10.78;;
49800;SDS011;35698;50.232;30.540;2022-10-17T21:39:13;17.77;;;10.70;;
49800;SDS011;35698;50.232;30.540;2022-10-17T21:40:18;21.94;;;11.05;;
49800;SDS011;35698;50.232;30.540;2022-10-17T21:41:23;22.62;;;10.69;;
49800;SDS011;35698;50.232;30.540;2022-10-17T21:42:28;17.37;;;10.37;;
49800;SDS011;35698;50.232;30.540;2022-10-17T21:43:32;21.60;;;11.58;;
49800;SDS011;35698;50.232;30.540;2022-10-17T21:44:36;23.92;;;11.24;;
49800;SDS011;35698;50.232;30.540;2022-10-17T21:45:39;21.54;;;10.25;;
49800;SDS011;35698;50.232;30.540;2022-10-17T21:47:03;19.31;;;9.73;;
49800;SDS011;35698;50.232;30.540;2022-10-17T21:48:06;17.84;;;10.07;;
49800;SDS011;35698;50.232;30.540;2022-10-17T21:49:18;22.83;;;11.44;;
49800;SDS011;35698;50.232;30.540;2022-10-17T21:50:28;23.22;;;10.36;;
49800;SDS011;35698;50.232;30.540;2022-10-17T21:51:32;20.74;;;10.69;;
49800;SDS011;35698;50.232;30.540;2022-10-17T21:52:57;18.06;;;10.49;;
49800;SDS011;35698;50.232;30.540;2022-10-17T21:54:03;22.64;;;11.16;;
49800;SDS011;35698;50.232;30.540;2022-10-17T21:55:20;19.50;;;10.41;;
49800;SDS011;35698;50.232;30.540;2022-10-17T21:56:26;21.97;;;10.54;;
49800;SDS011;35698;50.232;30.540;2022-10-17T21:57:41;24.09;;;11.30;;
49800;SDS011;35698;50.232;30.540;2022-10-17T21:58:45;18.36;;;10.54;;
49800;SDS011;35698;50.232;30.540;2022-10-17T22:01:47;19.32;;;10.23;;
49800;SDS011;35698;50.232;30.540;2022-10-17T22:03:02;18.79;;;10.19;;
49800;SDS011;35698;50.232;30.540;2022-10-17T22:04:16;22.20;;;10.41;;
49800;SDS011;35698;50.232;30.540;2022-10-17T22:05:21;17.89;;;10.20;;
49800;SDS011;35698;50.232;30.540;2022-10-17T22:06:25;16.94;;;10.06;;
49800;SDS011;35698;50.232;30.540;2022-10-17T22:07:39;21.40;;;10.51;;
49800;SDS011;35698;50.232;30.540;2022-10-17T22:08:42;20.15;;;10.31;;
49800;SDS011;35698;50.232;30.540;2022-10-17T22:09:47;19.57;;;10.41;;
49800;SDS011;35698;50.232;30.540;2022-10-17T22:10:51;20.35;;;10.16;;
49800;SDS011;35698;50.232;30.540;2022-10-17T22:12:03;18.54;;;10.56;;
49800;SDS011;35698;50.232;30.540;2022-10-17T22:13:14;19.26;;;9.72;;
49800;SDS011;35698;50.232;30.540;2022-10-17T22:14:20;20.73;;;10.99;;
49800;SDS011;35698;50.232;30.540;2022-10-17T22:15:24;22.76;;;10.08;;
49800;SDS011;35698;50.232;30.540;2022-10-17T22:16:37;20.98;;;11.09;;
49800;SDS011;35698;50.232;30.540;2022-10-17T22:17:41;17.11;;;9.65;;
49800;SDS011;35698;50.232;30.540;2022-10-17T22:18:45;18.65;;;10.29;;
49800;SDS011;35698;50.232;30.540;2022-10-17T22:19:56;21.29;;;10.48;;
49800;SDS011;35698;50.232;30.540;2022-10-17T22:21:07;20.04;;;11.40;;
49800;SDS011;35698;50.232;30.540;2022-10-17T22:23:35;19.13;;;10.21;;
49800;SDS011;35698;50.232;30.540;2022-10-17T22:24:39;22.14;;;11.06;;
49800;SDS011;35698;50.232;30.540;2022-10-17T22:25:42;19.49;;;10.59;;
49800;SDS011;35698;50.232;30.540;2022-10-17T22:26:46;22.56;;;10.38;;
49800;SDS011;35698;50.232;30.540;2022-10-17T22:28:12;15.58;;;9.43;;
49800;SDS011;35698;50.232;30.540;2022-10-17T22:29:16;19.79;;;10.12;;
49800;SDS011;35698;50.232;30.540;2022-10-17T22:30:28;20.56;;;10.38;;
49800;SDS011;35698;50.232;30.540;2022-10-17T22:31:32;27.71;;;10.72;;
49800;SDS011;35698;50.232;30.540;2022-10-17T22:32:54;20.14;;;10.12;;
49800;SDS011;35698;50.232;30.540;2022-10-17T22:33:57;20.52;;;10.06;;
49800;SDS011;35698;50.232;30.540;2022-10-17T22:35:07;26.14;;;11.17;;
49800;SDS011;35698;50.232;30.540;2022-10-17T22:36:11;20.44;;;10.11;;
49800;SDS011;35698;50.232;30.540;2022-10-17T22:37:15;19.49;;;10.28;;
49800;SDS011;35698;50.232;30.540;2022-10-17T22:38:18;16.57;;;10.28;;
49800;SDS011;35698;50.232;30.540;2022-10-17T22:39:33;18.46;;;10.21;;
49800;SDS011;35698;50.232;30.540;2022-10-17T22:40:42;20.08;;;10.42;;
49800;SDS011;35698;50.232;30.540;2022-10-17T22:41:47;19.33;;;10.34;;
49800;SDS011;35698;50.232;30.540;2022-10-17T22:42:59;19.63;;;9.98;;
49800;SDS011;35698;50.232;30.540;2022-10-17T22:44:02;24.21;;;10.24;;
49800;SDS011;35698;50.232;30.540;2022-10-17T22:45:14;17.63;;;9.42;;
49800;SDS011;35698;50.232;30.540;2022-10-17T22:46:17;20.06;;;9.91;;
49800;SDS011;35698;50.232;30.540;2022-10-17T22:47:24;27.04;;;10.64;;
49800;SDS011;35698;50.232;30.540;2022-10-17T22:48:41;19.13;;;10.10;;
49800;SDS011;35698;50.232;30.540;2022-10-17T22:49:53;16.89;;;9.88;;
49800;SDS011;35698;50.232;30.540;2022-10-17T22:51:01;22.12;;;10.79;;
49800;SDS011;35698;50.232;30.540;2022-10-17T22:52:13;22.11;;;9.59;;
49800;SDS011;35698;50.232;30.540;2022-10-17T22:53:19;17.74;;;9.78;;
49800;SDS011;35698;50.232;30.540;2022-10-17T22:54:29;17.33;;;9.67;;